TimeCST,TemperatureF,Dew PointF,Humidity,Sea Level PressureIn,VisibilityMPH,Wind Direction,Wind SpeedMPH,Gust SpeedMPH,PrecipitationIn,Events,Conditions,WindDirDegrees,DateUTC
12:15 AM,35.6,26.6,70,29.89,7.0,NNE,4.6,-,N/A,Snow,Light Snow,20,2013-03-05 06:15:00
12:35 AM,35.6,26.6,70,29.89,10.0,North,5.8,-,N/A,,Overcast,10,2013-03-05 06:35:00
12:55 AM,35.6,26.6,70,29.89,5.0,North,4.6,-,N/A,Snow,Light Snow,360,2013-03-05 06:55:00
1:15 AM,33.8,26.6,75,29.89,3.0,North,5.8,-,N/A,Snow,Light Snow,350,2013-03-05 07:15:00
1:55 AM,33.8,26.6,75,29.89,1.5,North,5.8,-,N/A,Snow,Light Snow,350,2013-03-05 07:55:00
2:15 AM,33.8,26.6,75,29.89,0.8,North,4.6,-,N/A,Snow,Snow,350,2013-03-05 08:15:00
2:35 AM,33.8,26.6,75,29.88,1.0,North,4.6,-,N/A,Snow,Light Snow,350,2013-03-05 08:35:00
2:55 AM,33.8,26.6,75,29.88,1.5,NNW,3.5,-,N/A,Snow,Light Snow,340,2013-03-05 08:55:00
3:15 AM,33.8,26.6,75,29.87,1.8,NNW,4.6,-,N/A,Snow,Light Snow,340,2013-03-05 09:15:00
3:35 AM,33.8,26.6,75,29.87,1.5,NNW,4.6,-,N/A,Snow,Light Snow,340,2013-03-05 09:35:00
3:55 AM,33.8,26.6,75,29.88,1.0,NW,4.6,-,N/A,Snow,Light Snow,320,2013-03-05 09:55:00
4:15 AM,33.8,26.6,75,29.87,1.2,NNW,3.5,-,N/A,Snow,Light Snow,340,2013-03-05 10:15:00
4:35 AM,33.8,26.6,75,29.89,1.2,NW,4.6,-,N/A,Snow,Light Snow,310,2013-03-05 10:35:00
4:55 AM,33.8,26.6,75,29.90,1.5,NW,5.8,-,N/A,Snow,Snow,310,2013-03-05 10:55:00
5:15 AM,33.8,26.6,75,29.91,1.2,WNW,4.6,-,N/A,Snow,Light Snow,300,2013-03-05 11:15:00
5:35 AM,33.8,26.6,75,29.91,0.8,NW,4.6,-,N/A,Snow,Snow,310,2013-03-05 11:35:00
5:55 AM,33.8,26.6,75,29.91,0.8,NW,6.9,-,N/A,Snow,Snow,310,2013-03-05 11:55:00
6:15 AM,33.8,26.6,75,29.92,0.5,WNW,5.8,-,N/A,Snow,Snow,300,2013-03-05 12:15:00
7:15 AM,33.8,26.6,75,29.92,0.8,NW,10.4,-,N/A,Snow,Light Snow,310,2013-03-05 13:15:00
7:35 AM,33.8,26.6,75,29.93,1.2,NW,9.2,-,N/A,Snow,Light Snow,310,2013-03-05 13:35:00
7:55 AM,33.8,26.6,75,29.93,2.0,NW,10.4,16.1,N/A,Snow,Light Snow,310,2013-03-05 13:55:00
8:15 AM,33.8,26.6,75,29.93,3.0,NW,13.8,20.7,N/A,Snow,Light Snow,320,2013-03-05 14:15:00
8:35 AM,33.8,26.6,75,29.93,1.0,NW,13.8,21.9,N/A,Snow,Light Snow,310,2013-03-05 14:35:00
8:55 AM,33.8,26.6,75,29.93,3.0,NW,13.8,23.0,N/A,,Haze,310,2013-03-05 14:55:00
9:15 AM,33.8,26.6,75,29.94,5.0,NW,15.0,21.9,N/A,,Haze,310,2013-03-05 15:15:00
9:35 AM,33.8,24.8,70,29.94,5.0,NW,19.6,31.1,N/A,,Haze,310,2013-03-05 15:35:00
9:55 AM,33.8,24.8,70,29.94,7.0,NW,15.0,26.5,N/A,,Overcast,310,2013-03-05 15:55:00
10:15 AM,33.8,23.0,65,29.94,10.0,NW,18.4,28.8,N/A,,Overcast,310,2013-03-05 16:15:00
10:35 AM,33.8,23.0,65,29.94,10.0,WNW,18.4,21.9,N/A,,Overcast,300,2013-03-05 16:35:00
10:55 AM,33.8,23.0,65,29.95,10.0,WNW,17.3,24.2,N/A,,Overcast,300,2013-03-05 16:55:00
11:15 AM,35.6,21.2,56,29.95,10.0,WNW,16.1,23.0,N/A,,Overcast,290,2013-03-05 17:15:00
11:35 AM,35.6,21.2,56,29.95,10.0,WNW,17.3,25.3,N/A,,Overcast,300,2013-03-05 17:35:00
11:55 AM,35.6,21.2,56,29.95,10.0,WNW,18.4,27.6,0.01,,Overcast,300,2013-03-05 17:55:00
12:15 PM,35.6,19.4,52,29.96,10.0,WNW,16.1,23.0,0.03,,Overcast,300,2013-03-05 18:15:00
12:35 PM,33.8,21.2,60,29.96,10.0,WNW,20.7,26.5,0.04,,Overcast,300,2013-03-05 18:35:00
12:55 PM,33.8,19.4,56,29.96,10.0,WNW,18.4,25.3,0.05,,Overcast,300,2013-03-05 18:55:00
1:15 PM,35.6,19.4,52,29.96,10.0,WNW,18.4,25.3,0.01,,Overcast,300,2013-03-05 19:15:00
1:35 PM,33.8,17.6,52,29.96,10.0,WNW,18.4,24.2,0.02,,Overcast,300,2013-03-05 19:35:00
1:55 PM,35.6,17.6,48,29.96,10.0,NW,17.3,24.2,0.02,,Overcast,310,2013-03-05 19:55:00
2:15 PM,33.8,19.4,56,29.97,10.0,WNW,17.3,27.6,N/A,,Overcast,300,2013-03-05 20:15:00
2:35 PM,33.8,19.4,56,29.97,10.0,WNW,15.0,19.6,N/A,,Overcast,300,2013-03-05 20:35:00
3:15 PM,33.8,21.2,60,29.98,10.0,WNW,17.3,26.5,N/A,,Overcast,290,2013-03-05 21:15:00
3:35 PM,33.8,21.2,60,29.97,10.0,WNW,18.4,28.8,N/A,,Overcast,300,2013-03-05 21:35:00
3:55 PM,33.8,21.2,60,29.97,10.0,WNW,20.7,26.5,N/A,,Overcast,300,2013-03-05 21:55:00
4:15 PM,35.6,21.2,56,29.98,10.0,WNW,16.1,26.5,N/A,,Overcast,300,2013-03-05 22:15:00
4:35 PM,33.8,21.2,60,29.99,7.0,WNW,21.9,29.9,N/A,,Overcast,290,2013-03-05 22:35:00
4:55 PM,33.8,21.2,60,30.01,10.0,NW,11.5,24.2,N/A,,Overcast,310,2013-03-05 22:55:00
5:15 PM,33.8,21.2,60,30.01,10.0,NW,13.8,25.3,N/A,,Overcast,310,2013-03-05 23:15:00
5:35 PM,33.8,23.0,65,30.02,10.0,WNW,16.1,24.2,N/A,,Overcast,300,2013-03-05 23:35:00
5:55 PM,33.8,23.0,65,30.03,7.0,WNW,20.7,28.8,N/A,,Overcast,300,2013-03-05 23:55:00
6:15 PM,33.8,24.8,70,30.04,7.0,NW,18.4,28.8,N/A,,Overcast,320,2013-03-06 00:15:00
6:35 PM,33.8,24.8,70,30.05,7.0,NW,19.6,24.2,N/A,,Overcast,320,2013-03-06 00:35:00
6:55 PM,33.8,23.0,65,30.06,7.0,NW,15.0,26.5,N/A,,Overcast,320,2013-03-06 00:55:00
7:15 PM,33.8,23.0,65,30.07,10.0,NW,13.8,21.9,N/A,,Overcast,320,2013-03-06 01:15:00
7:35 PM,33.8,23.0,65,30.07,10.0,NW,18.4,28.8,N/A,,Overcast,320,2013-03-06 01:35:00
7:55 PM,33.8,21.2,60,30.08,10.0,NNW,16.1,25.3,N/A,,Overcast,330,2013-03-06 01:55:00
8:15 PM,33.8,21.2,60,30.09,10.0,NNW,17.3,24.2,N/A,,Overcast,330,2013-03-06 02:15:00
8:35 PM,33.8,21.2,60,30.11,7.0,NNW,15.0,27.6,N/A,,Overcast,330,2013-03-06 02:35:00
8:55 PM,33.8,21.2,60,30.11,10.0,NW,21.9,31.1,N/A,,Overcast,310,2013-03-06 02:55:00
9:15 PM,32.0,19.4,60,30.12,10.0,NW,19.6,27.6,N/A,,Overcast,320,2013-03-06 03:15:00
9:35 PM,32.0,19.4,60,30.13,10.0,NW,16.1,25.3,N/A,,Overcast,320,2013-03-06 03:35:00
9:55 PM,32.0,19.4,60,30.14,10.0,NW,15.0,24.2,N/A,,Overcast,320,2013-03-06 03:55:00
10:15 PM,32.0,19.4,60,30.14,10.0,NW,18.4,25.3,N/A,,Overcast,310,2013-03-06 04:15:00
10:35 PM,32.0,19.4,60,30.16,10.0,NW,16.1,21.9,N/A,,Overcast,320,2013-03-06 04:35:00
10:55 PM,32.0,19.4,60,30.17,10.0,NW,15.0,21.9,N/A,,Overcast,320,2013-03-06 04:55:00
11:15 PM,32.0,19.4,60,30.17,10.0,NNW,10.4,19.6,N/A,,Overcast,330,2013-03-06 05:15:00
11:35 PM,32.0,21.2,64,30.17,10.0,NNW,16.1,23.0,N/A,,Overcast,330,2013-03-06 05:35:00
11:55 PM,30.2,21.2,69,30.17,10.0,NNW,12.7,18.4,N/A,,Overcast,330,2013-03-06 05:55:00